createdAt,value
2022-11-14T00:01:00.165Z,9.48
2022-11-14T00:03:45.127Z,9.46
2022-11-14T00:06:30.328Z,9.46
2022-11-14T00:09:15.184Z,9.43
2022-11-14T00:12:00.054Z,9.43
2022-11-14T00:14:44.843Z,9.47
2022-11-14T00:17:29.781Z,9.48
2022-11-14T00:20:15.068Z,9.47
2022-11-14T00:23:00.247Z,9.48
2022-11-14T00:25:46.363Z,9.49
2022-11-14T00:28:31.698Z,9.53
2022-11-14T00:31:16.908Z,9.55
2022-11-14T00:34:01.812Z,9.53
2022-11-14T00:36:46.721Z,9.47
2022-11-14T00:39:32.133Z,9.55
2022-11-14T00:42:17.282Z,9.56
2022-11-14T00:45:02.470Z,9.57
2022-11-14T00:47:47.647Z,9.51
2022-11-14T00:50:32.667Z,9.61
2022-11-14T00:53:17.524Z,9.61
2022-11-14T00:56:02.701Z,9.52
2022-11-14T00:58:47.754Z,9.54
2022-11-14T01:01:32.915Z,9.53
2022-11-14T01:04:18.226Z,9.65
2022-11-14T01:07:03.477Z,9.65
2022-11-14T01:09:48.648Z,9.63
2022-11-14T01:12:34.494Z,9.63
2022-11-14T01:15:19.731Z,9.67
2022-11-14T01:18:04.705Z,9.60
2022-11-14T01:20:50.046Z,9.66
2022-11-14T01:23:36.012Z,9.69
2022-11-14T01:26:21.230Z,9.63
2022-11-14T01:29:06.563Z,9.65
2022-11-14T01:31:51.529Z,9.64
2022-11-14T01:34:36.453Z,9.67
2022-11-14T01:37:21.697Z,9.69
2022-11-14T01:40:07.264Z,9.70
2022-11-14T01:43:11.264Z,9.70
2022-11-14T01:46:01.244Z,9.70
2022-11-14T01:48:49.498Z,9.66
2022-11-14T01:51:41.382Z,9.65
2022-11-14T01:54:32.466Z,9.68
2022-11-14T01:57:21.795Z,9.57
2022-11-14T02:00:10.472Z,9.66
2022-11-14T02:02:56.329Z,9.61
2022-11-14T02:05:44.920Z,9.59
2022-11-14T02:08:30.540Z,9.65
2022-11-14T02:11:15.855Z,9.69
2022-11-14T02:14:01.352Z,9.65
2022-11-14T02:17:07.324Z,9.72
2022-11-14T02:20:04.606Z,9.64
2022-11-14T02:22:50.048Z,9.61
2022-11-14T02:25:35.352Z,9.73
2022-11-14T02:28:21.631Z,9.74
2022-11-14T02:31:06.516Z,9.78
2022-11-14T02:33:51.346Z,9.78
2022-11-14T02:36:36.247Z,9.78
2022-11-14T02:39:22.130Z,9.77
2022-11-14T02:42:07.084Z,9.79
2022-11-14T02:44:52.238Z,9.79
2022-11-14T02:47:37.605Z,9.71
2022-11-14T02:50:22.602Z,9.69
2022-11-14T02:53:07.697Z,9.78
2022-11-14T02:55:52.671Z,9.77
2022-11-14T02:58:37.613Z,9.79
2022-11-14T03:01:22.651Z,9.82
2022-11-14T03:04:08.398Z,9.83
2022-11-14T03:06:53.595Z,9.87
2022-11-14T03:09:38.817Z,9.87
2022-11-14T03:12:23.834Z,9.87
2022-11-14T03:15:09.712Z,9.80
2022-11-14T03:17:55.006Z,9.89
2022-11-14T03:20:40.855Z,9.93
2022-11-14T03:23:26.218Z,9.91
2022-11-14T03:26:12.984Z,9.88
2022-11-14T03:28:58.021Z,9.89
2022-11-14T03:31:43.113Z,9.89
2022-11-14T03:34:28.195Z,9.92
2022-11-14T03:37:13.249Z,9.84
2022-11-14T03:39:58.392Z,9.96
2022-11-14T03:42:43.293Z,9.85
2022-11-14T03:45:28.335Z,9.95
2022-11-14T03:48:13.523Z,9.93
2022-11-14T03:50:58.950Z,9.98
2022-11-14T03:53:43.764Z,9.98
2022-11-14T03:56:28.672Z,9.99
2022-11-14T03:59:13.652Z,10.00
2022-11-14T04:01:58.864Z,10.00
2022-11-14T04:04:44.089Z,10.00
2022-11-14T04:07:29.108Z,10.02
2022-11-14T04:10:14.153Z,9.98
2022-11-14T04:12:59.295Z,10.01
2022-11-14T04:15:44.451Z,10.01
2022-11-14T04:18:30.365Z,9.93
2022-11-14T04:21:15.761Z,10.01
2022-11-14T04:24:00.742Z,10.02
2022-11-14T04:26:45.955Z,10.01
2022-11-14T04:29:30.973Z,10.02
2022-11-14T04:32:15.847Z,10.03
2022-11-14T04:35:00.931Z,9.94
2022-11-14T04:37:45.980Z,10.01
2022-11-14T04:40:31.140Z,10.01
2022-11-14T04:43:16.372Z,10.04
2022-11-14T04:46:01.717Z,10.04
2022-11-14T04:48:47.045Z,10.04
2022-11-14T04:51:32.353Z,10.06
2022-11-14T04:54:17.386Z,10.07
2022-11-14T04:57:02.642Z,10.02
2022-11-14T04:59:47.511Z,10.07
2022-11-14T05:02:32.880Z,9.99
2022-11-14T05:05:17.914Z,10.08
2022-11-14T05:08:03.267Z,10.05
2022-11-14T05:10:48.567Z,10.07
2022-11-14T05:13:33.492Z,10.07
2022-11-14T05:16:18.244Z,9.95
2022-11-14T05:19:03.399Z,10.07
2022-11-14T05:21:48.598Z,9.92
2022-11-14T05:24:33.686Z,10.10
2022-11-14T05:27:18.932Z,10.10
2022-11-14T05:30:04.516Z,10.10
2022-11-14T05:32:52.122Z,10.04
2022-11-14T05:35:37.332Z,10.11
2022-11-14T05:38:22.744Z,10.11
2022-11-14T05:41:08.868Z,10.01
2022-11-14T05:43:53.788Z,10.10
2022-11-14T05:46:38.704Z,10.10
2022-11-14T05:49:24.076Z,10.10
2022-11-14T05:52:09.222Z,10.09
2022-11-14T05:54:54.251Z,10.09
2022-11-14T05:57:39.233Z,10.09
2022-11-14T06:00:24.451Z,9.98
2022-11-14T06:03:09.427Z,10.08
2022-11-14T06:05:54.670Z,10.06
2022-11-14T06:08:39.517Z,10.10
2022-11-14T06:11:24.778Z,10.15
2022-11-14T06:14:11.234Z,10.14
2022-11-14T06:16:56.485Z,10.19
2022-11-14T06:19:41.343Z,10.16
2022-11-14T06:22:26.157Z,10.21
2022-11-14T06:25:11.199Z,10.21
2022-11-14T06:27:58.604Z,10.13
2022-11-14T06:30:43.789Z,10.20
2022-11-14T06:33:30.026Z,10.19
2022-11-14T06:36:16.050Z,10.22
2022-11-14T06:39:00.855Z,10.07
2022-11-14T06:41:45.858Z,10.23
2022-11-14T06:44:31.354Z,10.24
2022-11-14T06:47:16.443Z,10.24
2022-11-14T06:50:01.717Z,10.20
2022-11-14T06:52:46.847Z,10.28
2022-11-14T06:55:31.781Z,10.30
2022-11-14T06:58:16.708Z,10.31
2022-11-14T07:01:14.716Z,10.35
2022-11-14T07:04:00.602Z,10.34
2022-11-14T07:06:46.096Z,10.26
2022-11-14T07:09:31.395Z,10.32
2022-11-14T07:12:22.678Z,10.33
2022-11-14T07:15:08.512Z,10.26
2022-11-14T07:17:53.715Z,10.37
2022-11-14T07:20:38.798Z,10.41
2022-11-14T07:23:23.736Z,10.43
2022-11-14T07:26:11.565Z,10.36
2022-11-14T07:29:02.090Z,10.45
2022-11-14T07:31:48.001Z,10.44
2022-11-14T07:34:32.922Z,10.46
2022-11-14T07:37:17.884Z,10.46
2022-11-14T07:40:02.802Z,10.45
2022-11-14T07:42:48.017Z,10.45
2022-11-14T07:45:33.008Z,10.37
2022-11-14T07:48:18.665Z,10.48
2022-11-14T07:51:06.732Z,10.35
2022-11-14T07:53:53.620Z,10.49
2022-11-14T07:56:38.893Z,10.54
2022-11-14T07:59:24.077Z,10.43
2022-11-14T08:02:14.303Z,10.55
2022-11-14T08:04:59.448Z,10.57
2022-11-14T08:07:44.936Z,10.57
2022-11-14T08:10:33.552Z,10.60
2022-11-14T08:13:32.041Z,10.49
2022-11-14T08:16:17.677Z,10.60
2022-11-14T08:19:02.642Z,10.64
2022-11-14T08:21:47.740Z,10.66
2022-11-14T08:24:32.812Z,10.59
2022-11-14T08:27:18.579Z,10.62
2022-11-14T08:30:03.937Z,10.73
2022-11-14T08:32:49.013Z,10.76
2022-11-14T08:35:34.364Z,10.77
2022-11-14T08:38:19.588Z,10.79
2022-11-14T08:41:05.572Z,10.78
2022-11-14T08:43:50.781Z,10.75
2022-11-14T08:46:35.893Z,10.85
2022-11-14T08:49:20.965Z,10.88
2022-11-14T08:52:05.960Z,10.80
2022-11-14T08:54:50.876Z,10.90
2022-11-14T08:57:36.058Z,10.91
2022-11-14T09:00:21.333Z,10.91
2022-11-14T09:03:11.762Z,10.90
2022-11-14T09:05:57.146Z,10.82
2022-11-14T09:08:42.444Z,10.92
2022-11-14T09:11:27.461Z,10.96
2022-11-14T09:14:19.466Z,11.02
2022-11-14T09:17:06.093Z,10.95
2022-11-14T09:19:51.290Z,11.11
2022-11-14T09:22:36.441Z,11.17
2022-11-14T09:25:21.959Z,11.17
2022-11-14T09:28:07.893Z,11.18
2022-11-14T09:30:52.925Z,11.18
2022-11-14T09:33:38.344Z,11.14
2022-11-14T09:36:23.915Z,11.24
2022-11-14T09:39:08.891Z,11.26
2022-11-14T09:42:17.338Z,11.32
2022-11-14T09:45:07.236Z,11.33
2022-11-14T09:48:06.985Z,11.38
2022-11-14T09:51:17.053Z,11.38
2022-11-14T09:54:28.700Z,11.46
2022-11-14T09:57:17.503Z,11.44
2022-11-14T10:00:03.951Z,11.61
2022-11-14T10:03:13.883Z,11.60
2022-11-14T10:06:05.403Z,11.56
2022-11-14T10:09:13.172Z,11.74
2022-11-14T10:12:21.448Z,11.71
2022-11-14T10:15:09.368Z,11.82
2022-11-14T10:18:33.323Z,11.89
2022-11-14T10:21:44.618Z,11.90
2022-11-14T10:24:51.536Z,11.95
2022-11-14T10:27:55.862Z,12.00
2022-11-14T10:31:21.760Z,12.23
2022-11-14T10:34:30.511Z,12.40
2022-11-14T10:37:25.789Z,12.36
2022-11-14T10:40:16.873Z,12.33
2022-11-14T10:43:15.693Z,12.38
2022-11-14T10:46:22.597Z,12.42
2022-11-14T10:49:21.321Z,12.38
2022-11-14T10:52:13.268Z,12.56
2022-11-14T10:55:03.588Z,12.58
2022-11-14T10:57:48.864Z,12.63
2022-11-14T11:00:33.906Z,12.70
2022-11-14T11:03:19.088Z,12.74
2022-11-14T11:06:04.369Z,12.79
2022-11-14T11:09:08.087Z,12.84
2022-11-14T11:12:01.799Z,12.82
2022-11-14T11:15:23.012Z,12.93
2022-11-14T11:18:28.806Z,12.91
2022-11-14T11:21:19.133Z,12.90
2022-11-14T11:24:05.060Z,12.85
2022-11-14T11:27:15.226Z,12.94
2022-11-14T11:30:23.106Z,12.95
2022-11-14T11:33:20.187Z,13.05
2022-11-14T11:36:12.516Z,13.13
2022-11-14T11:38:57.787Z,13.06
2022-11-14T11:44:53.535Z,13.32
2022-11-14T11:47:41.268Z,13.42
2022-11-14T11:50:26.496Z,13.42
2022-11-14T11:53:25.537Z,13.44
2022-11-14T11:56:18.225Z,13.53
2022-11-14T11:59:21.993Z,13.56
2022-11-14T12:02:24.335Z,13.60
2022-11-14T12:05:26.567Z,13.57
2022-11-14T12:08:21.489Z,13.53
2022-11-14T12:11:14.267Z,13.46
2022-11-14T12:14:24.115Z,13.49
2022-11-14T12:17:38.133Z,13.47
2022-11-14T12:20:48.373Z,13.53
2022-11-14T12:23:54.758Z,13.51
2022-11-14T12:26:59.467Z,13.54
2022-11-14T12:29:55.838Z,13.64
2022-11-14T12:32:47.645Z,13.63
2022-11-14T12:35:35.030Z,13.76
2022-11-14T12:38:22.488Z,13.79
2022-11-14T12:41:08.932Z,13.79
2022-11-14T12:44:18.669Z,13.80
2022-11-14T12:47:07.118Z,13.86
2022-11-14T12:49:52.670Z,13.92
2022-11-14T12:52:40.659Z,13.85
2022-11-14T12:55:25.608Z,13.83
2022-11-14T12:58:17.384Z,13.69
2022-11-14T13:01:20.882Z,13.73
2022-11-14T13:04:18.518Z,13.75
2022-11-14T13:07:06.456Z,13.72
2022-11-14T13:10:03.829Z,13.81
2022-11-14T13:13:16.164Z,13.84
2022-11-14T13:16:22.006Z,13.82
2022-11-14T13:19:28.758Z,13.83
2022-11-14T13:22:16.907Z,13.86
2022-11-14T13:25:01.769Z,13.92
2022-11-14T13:31:14.916Z,13.88
2022-11-14T13:34:01.221Z,13.93
2022-11-14T13:36:58.201Z,13.81
2022-11-14T13:39:58.328Z,13.99
2022-11-14T13:43:07.692Z,13.93
2022-11-14T13:46:10.279Z,14.01
2022-11-14T13:49:16.991Z,14.05
2022-11-14T13:52:02.149Z,14.07
2022-11-14T13:54:49.052Z,14.13
2022-11-14T13:57:52.259Z,14.18
2022-11-14T14:00:57.277Z,14.22
2022-11-14T14:04:02.135Z,14.18
2022-11-14T14:07:18.497Z,14.17
2022-11-14T14:10:24.429Z,14.17
2022-11-14T14:13:40.320Z,14.15
2022-11-14T14:16:53.530Z,14.15
2022-11-14T14:20:19.724Z,14.19
2022-11-14T14:23:10.597Z,14.06
2022-11-14T14:26:22.187Z,14.21
2022-11-14T14:29:30.771Z,14.23
2022-11-14T14:32:18.139Z,14.25
2022-11-14T14:35:25.932Z,14.25
2022-11-14T14:38:13.124Z,14.25
2022-11-14T14:40:58.225Z,14.26
2022-11-14T14:43:49.595Z,14.26
2022-11-14T14:46:34.475Z,14.25
2022-11-14T14:49:25.739Z,14.21
2022-11-14T14:52:29.690Z,14.21
2022-11-14T14:55:23.957Z,14.15
2022-11-14T14:58:27.690Z,14.24
2022-11-14T15:01:15.728Z,14.24
2022-11-14T15:04:06.415Z,14.21
2022-11-14T15:06:52.579Z,14.21
2022-11-14T15:09:37.646Z,14.16
2022-11-14T15:12:28.979Z,14.20
2022-11-14T15:15:16.475Z,14.15
2022-11-14T15:18:07.141Z,14.16
2022-11-14T15:21:13.614Z,14.02
2022-11-14T15:24:01.542Z,14.15
2022-11-14T15:26:49.750Z,14.10
2022-11-14T15:29:34.809Z,14.15
2022-11-14T15:32:22.960Z,14.11
2022-11-14T15:35:27.367Z,13.99
2022-11-14T15:38:42.562Z,14.04
2022-11-14T15:41:22.718Z,14.00
2022-11-14T15:44:34.364Z,13.92
2022-11-14T15:47:30.166Z,13.90
2022-11-14T15:50:15.566Z,13.90
2022-11-14T15:53:03.991Z,13.86
2022-11-14T15:55:49.433Z,13.82
2022-11-14T15:58:34.592Z,13.71
2022-11-14T16:01:25.976Z,13.76
2022-11-14T16:04:16.334Z,13.77
2022-11-14T16:07:01.340Z,13.77
2022-11-14T16:09:47.470Z,13.77
2022-11-14T16:12:32.677Z,13.90
2022-11-14T16:15:18.745Z,14.03
2022-11-14T16:18:05.359Z,14.07
2022-11-14T16:20:51.476Z,14.01
2022-11-14T16:23:36.773Z,13.90
2022-11-14T16:26:21.802Z,13.81
2022-11-14T16:29:07.826Z,13.79
2022-11-14T16:31:53.838Z,13.80
2022-11-14T16:34:38.624Z,13.79
2022-11-14T16:37:25.173Z,13.79
2022-11-14T16:40:15.147Z,13.79
2022-11-14T16:43:00.203Z,13.76
2022-11-14T16:45:45.372Z,13.80
2022-11-14T16:48:30.720Z,13.75
2022-11-14T16:51:46.232Z,13.81
2022-11-14T16:54:20.886Z,13.81
2022-11-14T16:57:06.037Z,13.82
2022-11-14T16:59:53.912Z,13.86
2022-11-14T17:02:42.426Z,13.85
2022-11-14T17:05:27.564Z,13.87
2022-11-14T17:08:13.062Z,13.85
2022-11-14T17:10:58.146Z,13.85
2022-11-14T17:13:43.104Z,13.87
2022-11-14T17:16:28.079Z,13.78
2022-11-14T17:19:14.213Z,13.84
2022-11-14T17:21:59.355Z,13.76
2022-11-14T17:24:44.796Z,13.65
2022-11-14T17:27:29.901Z,13.46
2022-11-14T17:30:18.653Z,13.49
2022-11-14T17:33:03.688Z,13.38
2022-11-14T17:35:48.732Z,13.30
2022-11-14T17:38:34.637Z,13.20
2022-11-14T17:41:20.487Z,13.06
2022-11-14T17:44:05.672Z,13.13
2022-11-14T17:46:51.070Z,13.10
2022-11-14T17:49:36.113Z,13.03
2022-11-14T17:52:21.384Z,12.94
2022-11-14T17:55:06.834Z,13.02
2022-11-14T17:57:51.864Z,13.01
2022-11-14T18:00:37.426Z,12.89
2022-11-14T18:03:22.340Z,12.94
2022-11-14T18:06:12.323Z,12.89
2022-11-14T18:08:57.249Z,12.80
2022-11-14T18:11:42.588Z,12.72
2022-11-14T18:14:27.901Z,12.74
2022-11-14T18:17:13.623Z,12.74
2022-11-14T18:20:02.056Z,12.74
2022-11-14T18:22:47.012Z,12.65
2022-11-14T18:25:32.035Z,12.70
2022-11-14T18:28:17.187Z,12.62
2022-11-14T18:31:03.544Z,12.63
2022-11-14T18:33:48.954Z,12.66
2022-11-14T18:36:34.224Z,12.71
2022-11-14T18:39:19.523Z,12.63
2022-11-14T18:42:04.668Z,12.72
2022-11-14T18:44:50.104Z,12.65
2022-11-14T18:47:35.348Z,12.70
2022-11-14T18:50:20.635Z,12.66
2022-11-14T18:53:05.616Z,12.72
2022-11-14T18:55:53.102Z,12.72
2022-11-14T18:58:41.947Z,12.74
2022-11-14T19:01:29.612Z,12.73
2022-11-14T19:04:17.242Z,12.76
2022-11-14T19:07:02.378Z,12.76
2022-11-14T19:09:47.213Z,12.75
2022-11-14T19:12:32.239Z,12.74
2022-11-14T19:15:17.273Z,12.75
2022-11-14T19:18:02.407Z,12.69
2022-11-14T19:20:57.828Z,12.77
2022-11-14T19:23:42.803Z,12.80
2022-11-14T19:26:29.337Z,12.79
2022-11-14T19:29:14.668Z,12.82
2022-11-14T19:31:59.998Z,12.78
2022-11-14T19:34:45.404Z,12.77
2022-11-14T19:37:30.438Z,12.69
2022-11-14T19:40:15.292Z,12.69
2022-11-14T19:43:02.747Z,12.63
2022-11-14T19:45:48.293Z,12.56
2022-11-14T19:48:34.786Z,12.54
2022-11-14T19:51:19.956Z,12.49
2022-11-14T19:54:05.115Z,12.42
2022-11-14T19:56:50.411Z,12.49
2022-11-14T19:59:35.238Z,12.38
2022-11-14T20:02:20.168Z,12.31
2022-11-14T20:05:05.524Z,12.25
2022-11-14T20:07:50.376Z,12.24
2022-11-14T20:10:47.477Z,12.23
2022-11-14T20:13:35.946Z,12.22
2022-11-14T20:16:24.658Z,12.21
2022-11-14T20:19:09.934Z,12.21
2022-11-14T20:21:55.507Z,12.12
2022-11-14T20:24:40.474Z,11.98
2022-11-14T20:27:25.705Z,11.89
2022-11-14T20:30:11.233Z,12.02
2022-11-14T20:32:56.207Z,11.93
2022-11-14T20:35:41.397Z,11.93
2022-11-14T20:38:29.505Z,12.00
2022-11-14T20:41:15.849Z,11.99
2022-11-14T20:44:03.404Z,11.83
2022-11-14T20:46:48.629Z,11.94
2022-11-14T20:49:33.827Z,11.89
2022-11-14T20:52:18.893Z,11.88
2022-11-14T20:55:11.442Z,11.93
2022-11-14T20:57:57.112Z,11.88
2022-11-14T21:00:42.488Z,11.90
2022-11-14T21:03:28.081Z,11.91
2022-11-14T21:06:14.196Z,11.88
2022-11-14T21:08:59.574Z,11.86
2022-11-14T21:11:44.737Z,11.79
2022-11-14T21:14:29.684Z,11.71
2022-11-14T21:17:14.912Z,11.56
2022-11-14T21:19:59.888Z,11.71
2022-11-14T21:22:44.820Z,11.69
2022-11-14T21:25:29.836Z,11.59
2022-11-14T21:28:15.075Z,11.58
2022-11-14T21:31:00.910Z,11.55
2022-11-14T21:33:47.883Z,11.48
2022-11-14T21:36:48.679Z,11.42
2022-11-14T21:39:33.925Z,11.29
2022-11-14T21:42:19.149Z,11.30
2022-11-14T21:45:04.499Z,11.12
2022-11-14T21:47:49.430Z,11.03
2022-11-14T21:50:34.494Z,11.03
2022-11-14T21:53:19.434Z,11.08
2022-11-14T21:56:07.787Z,11.02
2022-11-14T21:59:12.379Z,10.95
2022-11-14T22:02:16.371Z,10.90
2022-11-14T22:05:01.709Z,10.84
2022-11-14T22:07:46.853Z,10.81
2022-11-14T22:10:31.692Z,10.76
2022-11-14T22:13:16.948Z,10.71
2022-11-14T22:16:10.053Z,10.64
2022-11-14T22:18:59.098Z,10.45
2022-11-14T22:21:47.081Z,10.35
2022-11-14T22:24:32.740Z,10.38
2022-11-14T22:27:17.786Z,10.36
2022-11-14T22:30:03.463Z,10.34
2022-11-14T22:32:48.469Z,10.29
2022-11-14T22:35:35.371Z,10.28
2022-11-14T22:38:20.377Z,10.25
2022-11-14T22:41:08.186Z,10.12
2022-11-14T22:43:53.140Z,10.18
2022-11-14T22:46:39.017Z,10.12
2022-11-14T22:49:24.228Z,10.20
2022-11-14T22:52:09.410Z,10.19
2022-11-14T22:54:54.292Z,10.17
2022-11-14T22:57:39.186Z,10.14
2022-11-14T23:00:24.563Z,10.11
2022-11-14T23:03:09.547Z,10.08
2022-11-14T23:05:54.703Z,10.07
2022-11-14T23:08:40.335Z,10.06
2022-11-14T23:11:27.804Z,10.02
2022-11-14T23:14:15.574Z,10.01
2022-11-14T23:17:02.064Z,10.03
2022-11-14T23:19:46.987Z,9.98
2022-11-14T23:22:32.229Z,10.05
2022-11-14T23:25:17.720Z,9.93
2022-11-14T23:28:03.069Z,10.02
2022-11-14T23:30:48.322Z,10.01
2022-11-14T23:33:33.789Z,9.96
2022-11-14T23:36:19.851Z,9.98
2022-11-14T23:39:04.989Z,9.99
2022-11-14T23:41:50.152Z,9.99
2022-11-14T23:44:35.072Z,9.87
2022-11-14T23:47:20.029Z,9.94
2022-11-14T23:50:05.211Z,9.90
2022-11-14T23:52:50.003Z,9.90
2022-11-14T23:55:35.412Z,9.92
2022-11-14T23:58:21.740Z,9.90
